Time;durP1;ratioP1;P1;durP2;ratioP2;P2;SDS_P1;SDS_P2;PMS_P1;PMS_P2;Temp;Humidity;BMP_temperature;BMP_pressure;BME280_temperature;BME280_humidity;BME280_pressure;Samples;Min_cycle;Max_cycle;Signal;HPM_P1;HPM_P2
2022/06/24 00:00:43;;;;;;;0.27;0.27;;;22.10;99.90;;;;;;5039157;28;20669;-83
2022/06/24 00:03:16;;;;;;;0.27;0.27;;;22.00;99.90;;;;;;5036149;28;20189;-82
2022/06/24 00:05:42;;;;;;;0.67;0.67;;;22.00;99.90;;;;;;5044580;28;20193;-83
2022/06/24 00:08:08;;;;;;;0.20;0.20;;;22.00;99.90;;;;;;5038350;28;20214;-83
2022/06/24 00:10:35;;;;;;;1.73;1.63;;;21.90;99.90;;;;;;5045067;28;20183;-84
2022/06/24 00:13:02;;;;;;;0.77;0.40;;;21.80;99.90;;;;;;5038185;28;20186;-83
2022/06/24 00:15:37;;;;;;;0.20;0.20;;;21.80;99.90;;;;;;5037889;28;20190;-82
2022/06/24 00:18:18;;;;;;;0.97;0.37;;;21.80;99.90;;;;;;5040421;28;20274;-83
2022/06/24 00:20:46;;;;;;;0.23;0.23;;;21.70;99.90;;;;;;5039980;28;20178;-83
2022/06/24 00:23:15;;;;;;;0.50;0.50;;;21.80;99.90;;;;;;5039537;28;20301;-85
2022/06/24 00:25:41;;;;;;;0.13;0.13;;;21.70;99.90;;;;;;5038642;28;20197;-83
2022/06/24 00:28:09;;;;;;;0.90;0.83;;;21.60;99.90;;;;;;5038521;28;20294;-83
2022/06/24 00:30:39;;;;;;;0.27;0.27;;;21.70;99.90;;;;;;5037772;28;20188;-83
2022/06/24 00:33:25;;;;;;;0.10;0.10;;;21.50;99.90;;;;;;5045256;28;20183;-83
2022/06/24 00:35:53;;;;;;;1.30;0.60;;;21.60;99.90;;;;;;5039226;28;20182;-84
2022/06/24 00:38:27;;;;;;;0.20;0.20;;;21.50;99.90;;;;;;5037652;28;20203;-83
2022/06/24 00:41:00;;;;;;;0.20;0.20;;;21.40;99.90;;;;;;5038871;28;20178;-82
2022/06/24 00:43:32;;;;;;;0.47;0.27;;;21.30;99.90;;;;;;5038103;28;20202;-84
2022/06/24 00:46:24;;;;;;;0.20;0.20;;;21.20;99.90;;;;;;5037247;28;20229;-85
2022/06/24 00:48:51;;;;;;;0.60;0.30;;;21.30;99.90;;;;;;5044552;28;20202;-83
2022/06/24 00:51:20;;;;;;;0.40;0.20;;;21.30;99.90;;;;;;5036336;28;20305;-84
2022/06/24 00:53:48;;;;;;;0.10;0.10;;;21.30;99.90;;;;;;5038778;28;20714;-84
2022/06/24 00:56:17;;;;;;;0.10;0.10;;;21.30;99.90;;;;;;5037562;28;20257;-83
2022/06/24 00:58:56;;;;;;;1.30;0.20;;;21.40;99.90;;;;;;5036936;28;20221;-84
2022/06/24 01:01:36;;;;;;;2.93;2.00;;;21.40;99.90;;;;;;5039375;28;20186;-84
2022/06/24 01:04:04;;;;;;;0.93;0.40;;;21.40;99.90;;;;;;5043425;28;20251;-83
2022/06/24 01:06:31;;;;;;;0.30;0.20;;;21.30;99.90;;;;;;5037003;28;20189;-83
2022/06/24 01:08:57;;;;;;;0.43;0.43;;;21.20;99.90;;;;;;5037879;28;20313;-84
2022/06/24 01:11:23;;;;;;;0.30;0.30;;;21.20;99.90;;;;;;5034989;28;20186;-83
2022/06/24 01:13:49;;;;;;;0.23;0.23;;;21.10;99.90;;;;;;5037457;28;20232;-83
2022/06/24 01:16:15;;;;;;;0.20;0.20;;;21.20;99.90;;;;;;5036540;28;20190;-84
2022/06/24 01:18:40;;;;;;;0.13;0.13;;;21.10;99.90;;;;;;5036427;28;20229;-83
2022/06/24 01:21:06;;;;;;;0.10;0.10;;;21.10;99.90;;;;;;5035952;28;20182;-83
2022/06/24 01:23:31;;;;;;;0.10;0.10;;;21.10;99.90;;;;;;5034815;28;20575;-84
2022/06/24 01:25:57;;;;;;;0.83;0.53;;;21.10;99.90;;;;;;5037917;28;20206;-83
2022/06/24 01:28:23;;;;;;;0.20;0.20;;;21.00;99.90;;;;;;5036343;28;20206;-85
2022/06/24 01:30:48;;;;;;;0.50;0.50;;;21.00;99.90;;;;;;5037392;28;20186;-83
2022/06/24 01:33:14;;;;;;;0.27;0.20;;;21.00;99.90;;;;;;5036802;28;20549;-83
2022/06/24 01:35:39;;;;;;;0.23;0.23;;;21.10;99.90;;;;;;5038218;28;20182;-83
2022/06/24 01:38:05;;;;;;;1.90;0.37;;;21.00;99.90;;;;;;5035831;28;20607;-82
2022/06/24 01:40:30;;;;;;;0.60;0.30;;;21.00;99.90;;;;;;5035715;28;20187;-83
2022/06/24 01:42:56;;;;;;;0.87;0.80;;;21.10;99.90;;;;;;5035265;28;20209;-84
2022/06/24 01:45:21;;;;;;;0.20;0.20;;;21.10;99.90;;;;;;5035918;28;20197;-82
2022/06/24 01:47:47;;;;;;;0.10;0.10;;;21.00;99.90;;;;;;5035820;28;20224;-82
2022/06/24 01:50:13;;;;;;;0.10;0.10;;;20.90;99.90;;;;;;5035380;28;20193;-83
2022/06/24 01:52:38;;;;;;;0.37;0.37;;;20.80;99.90;;;;;;5037053;28;20221;-83
2022/06/24 01:55:05;;;;;;;0.30;0.30;;;20.70;99.90;;;;;;5039903;28;20184;-83
2022/06/24 01:57:31;;;;;;;3.83;0.27;;;20.60;99.90;;;;;;5044069;28;20205;-82
2022/06/24 01:59:59;;;;;;;0.40;0.40;;;20.60;99.90;;;;;;5038329;28;20318;-82
2022/06/24 02:02:24;;;;;;;0.30;0.30;;;20.60;99.90;;;;;;5038762;28;20644;-83
2022/06/24 02:04:52;;;;;;;0.37;0.23;;;20.60;99.90;;;;;;5037445;28;20244;-84
2022/06/24 02:07:17;;;;;;;0.10;0.10;;;20.50;99.90;;;;;;5038083;28;20292;-83
2022/06/24 02:15:11;;;;;;;0.10;0.10;;;20.60;99.90;;;;;;5038074;28;20224;-83
2022/06/24 02:17:37;;;;;;;0.53;0.30;;;20.70;99.90;;;;;;5037872;28;20229;-84
2022/06/24 02:20:02;;;;;;;0.73;0.73;;;20.60;99.90;;;;;;5036504;28;20233;-83
2022/06/24 02:22:28;;;;;;;0.20;0.20;;;20.70;99.90;;;;;;5036032;28;20194;-84
2022/06/24 02:24:53;;;;;;;0.10;0.10;;;20.10;99.90;;;;;;5036804;28;20199;-83
2022/06/24 02:27:19;;;;;;;0.33;0.33;;;19.80;99.90;;;;;;5037137;28;20205;-82
2022/06/24 02:29:44;;;;;;;0.20;0.20;;;19.90;99.90;;;;;;5039391;28;20200;-83
2022/06/24 02:32:11;;;;;;;0.20;0.20;;;20.10;99.90;;;;;;5043806;28;20273;-83
2022/06/24 02:34:36;;;;;;;0.10;0.10;;;20.20;99.90;;;;;;5043155;28;20182;-84
2022/06/24 02:37:02;;;;;;;0.40;0.30;;;20.40;99.90;;;;;;5037661;28;20922;-83
2022/06/24 02:39:27;;;;;;;0.30;0.23;;;20.40;99.90;;;;;;5038538;28;20285;-83
2022/06/24 02:41:53;;;;;;;0.10;0.10;;;20.40;99.90;;;;;;5038434;28;20256;-84
2022/06/24 02:44:19;;;;;;;0.20;0.20;;;20.50;99.90;;;;;;5038278;28;20254;-83
2022/06/24 02:46:44;;;;;;;0.10;0.10;;;20.60;99.90;;;;;;5040471;28;20181;-84
2022/06/24 02:49:09;;;;;;;0.30;0.30;;;20.40;99.90;;;;;;5036833;28;20197;-84
2022/06/24 02:51:35;;;;;;;0.20;0.20;;;20.30;99.90;;;;;;5040519;28;20189;-85
2022/06/24 02:54:01;;;;;;;0.10;0.10;;;20.20;99.90;;;;;;5040770;28;20554;-83
2022/06/24 02:56:26;;;;;;;0.30;0.30;;;19.90;99.90;;;;;;5038852;28;20185;-85
2022/06/24 02:58:52;;;;;;;0.57;0.57;;;19.70;99.90;;;;;;5038680;28;20935;-82
2022/06/24 03:01:18;;;;;;;1.13;0.50;;;19.70;99.90;;;;;;5039962;28;20187;-83
2022/06/24 03:03:43;;;;;;;0.17;0.17;;;19.50;99.90;;;;;;5037613;28;20214;-84
2022/06/24 03:06:09;;;;;;;0.87;0.87;;;19.40;99.90;;;;;;5040780;28;20191;-82
2022/06/24 03:08:35;;;;;;;0.40;0.40;;;19.50;99.90;;;;;;5037218;28;20206;-85
2022/06/24 03:11:01;;;;;;;0.20;0.20;;;19.60;99.90;;;;;;5039859;28;20184;-82
2022/06/24 03:13:28;;;;;;;1.17;0.30;;;19.60;99.90;;;;;;5035922;28;20719;-83
2022/06/24 03:15:53;;;;;;;0.57;0.33;;;19.40;99.90;;;;;;5036992;28;20276;-83
2022/06/24 03:18:20;;;;;;;0.10;0.10;;;19.30;99.90;;;;;;5035271;28;20292;-83
2022/06/24 03:20:46;;;;;;;0.10;0.10;;;19.20;99.90;;;;;;5035605;28;20251;-84
2022/06/24 03:23:13;;;;;;;0.23;0.23;;;19.40;99.90;;;;;;5035403;28;20182;-83
2022/06/24 03:25:38;;;;;;;0.13;0.13;;;19.40;99.90;;;;;;5042416;28;20210;-83
2022/06/24 03:28:04;;;;;;;0.53;0.20;;;19.60;99.90;;;;;;5039082;28;20202;-83
2022/06/24 03:30:30;;;;;;;0.20;0.20;;;19.90;99.90;;;;;;5038900;28;20316;-82
2022/06/24 03:32:56;;;;;;;0.43;0.43;;;20.10;99.90;;;;;;5042765;28;20240;-83
2022/06/24 03:35:21;;;;;;;0.20;0.20;;;20.30;99.90;;;;;;5041233;28;21158;-83
2022/06/24 03:37:47;;;;;;;0.47;0.47;;;20.30;99.90;;;;;;5045585;28;20209;-84
2022/06/24 03:40:13;;;;;;;0.10;0.10;;;20.40;99.90;;;;;;5040180;28;20203;-83
2022/06/24 03:42:38;;;;;;;0.30;0.30;;;20.50;99.90;;;;;;5040612;28;21164;-83
2022/06/24 03:45:06;;;;;;;0.20;0.20;;;20.50;99.90;;;;;;5039413;28;20212;-84
2022/06/24 03:47:32;;;;;;;0.23;0.23;;;20.60;99.90;;;;;;5039862;28;20230;-84
2022/06/24 03:49:57;;;;;;;0.20;0.20;;;20.60;99.90;;;;;;5042725;28;20193;-84
2022/06/24 03:52:23;;;;;;;0.10;0.10;;;20.70;99.90;;;;;;5043393;28;20190;-84
2022/06/24 03:54:48;;;;;;;0.10;0.10;;;20.60;99.90;;;;;;5041754;28;20217;-84
2022/06/24 03:57:14;;;;;;;1.07;0.97;;;20.70;99.90;;;;;;5040716;28;20256;-84
2022/06/24 03:59:39;;;;;;;0.10;0.10;;;20.30;99.90;;;;;;5040833;28;20757;-83
2022/06/24 04:02:05;;;;;;;0.10;0.10;;;20.00;99.90;;;;;;5038451;28;20191;-83
2022/06/24 04:04:30;;;;;;;0.30;0.30;;;20.20;99.90;;;;;;5039424;28;20216;-84
2022/06/24 04:06:56;;;;;;;0.20;0.20;;;20.10;99.90;;;;;;5037550;28;20297;-83
2022/06/24 04:09:22;;;;;;;0.37;0.37;;;20.20;99.90;;;;;;5039284;28;20667;-84
2022/06/24 04:11:48;;;;;;;0.23;0.23;;;20.30;99.90;;;;;;5038153;28;20236;-82
2022/06/24 04:14:13;;;;;;;0.30;0.30;;;20.10;99.90;;;;;;5038264;28;20239;-83
2022/06/24 04:16:39;;;;;;;0.30;0.30;;;20.10;99.90;;;;;;5039173;28;20185;-83
2022/06/24 04:19:04;;;;;;;0.20;0.20;;;20.00;99.90;;;;;;5038389;28;20206;-82
2022/06/24 04:21:31;;;;;;;0.20;0.20;;;19.80;99.90;;;;;;5038327;28;20200;-82
2022/06/24 04:23:57;;;;;;;1.43;0.87;;;19.90;99.90;;;;;;5037055;28;20304;-82
2022/06/24 04:26:22;;;;;;;0.23;0.23;;;19.90;99.90;;;;;;5038620;28;20315;-84
2022/06/24 04:28:49;;;;;;;0.20;0.20;;;20.10;99.90;;;;;;5039232;28;20209;-83
2022/06/24 04:31:15;;;;;;;0.30;0.30;;;20.20;99.90;;;;;;5038025;28;20182;-83
2022/06/24 04:33:40;;;;;;;0.83;0.80;;;20.20;99.90;;;;;;5043895;28;20189;-83
2022/06/24 04:36:13;;;;;;;0.40;0.40;;;20.20;99.90;;;;;;5038115;28;20190;-82
2022/06/24 04:38:42;;;;;;;1.43;0.93;;;20.30;99.90;;;;;;5037378;28;20731;-84
2022/06/24 04:41:16;;;;;;;0.63;0.63;;;20.10;99.90;;;;;;5037744;28;20223;-83
2022/06/24 04:43:42;;;;;;;4.00;0.60;;;20.00;99.90;;;;;;5039114;28;20216;-85
2022/06/24 04:46:08;;;;;;;0.50;0.30;;;20.10;99.90;;;;;;5039270;28;20567;-84
2022/06/24 04:48:34;;;;;;;0.20;0.20;;;20.20;99.90;;;;;;5039533;28;20259;-85
2022/06/24 04:51:00;;;;;;;0.40;0.40;;;20.30;99.90;;;;;;5038083;28;20187;-83
2022/06/24 04:53:25;;;;;;;0.20;0.20;;;20.20;99.90;;;;;;5037890;28;20235;-83
2022/06/24 04:55:51;;;;;;;0.27;0.27;;;20.50;99.90;;;;;;5036864;28;20995;-83
2022/06/24 04:58:16;;;;;;;0.27;0.27;;;20.30;99.90;;;;;;5036987;28;20239;-84
2022/06/24 05:00:42;;;;;;;0.30;0.30;;;20.50;99.90;;;;;;5036648;28;20246;-83
2022/06/24 05:03:07;;;;;;;0.73;0.67;;;20.60;99.90;;;;;;5045160;28;20186;-83
2022/06/24 05:05:33;;;;;;;0.30;0.30;;;20.40;99.90;;;;;;5039174;28;20206;-83
2022/06/24 05:07:59;;;;;;;1.07;0.93;;;20.40;99.90;;;;;;5036403;28;20217;-82
2022/06/24 05:10:24;;;;;;;1.30;1.30;;;20.50;99.90;;;;;;5043082;28;20562;-84
2022/06/24 05:12:50;;;;;;;0.37;0.37;;;20.40;99.90;;;;;;5035877;28;20183;-85
2022/06/24 05:15:15;;;;;;;1.70;0.53;;;20.30;99.90;;;;;;5038322;28;20686;-83
2022/06/24 05:17:41;;;;;;;0.70;0.40;;;20.10;99.90;;;;;;5036110;28;21068;-84
2022/06/24 05:20:07;;;;;;;0.70;0.67;;;20.20;99.90;;;;;;5038802;28;20266;-84
2022/06/24 05:22:33;;;;;;;0.43;0.30;;;20.30;99.90;;;;;;5059740;28;20589;-84
2022/06/24 05:24:59;;;;;;;0.40;0.40;;;20.40;99.90;;;;;;5037237;28;20205;-85
2022/06/24 05:27:24;;;;;;;0.40;0.40;;;20.60;99.90;;;;;;5035808;28;20206;-83
2022/06/24 05:29:50;;;;;;;0.40;0.40;;;20.60;99.90;;;;;;5034327;28;20559;-84
2022/06/24 05:32:15;;;;;;;0.80;0.40;;;20.70;99.90;;;;;;5036339;28;20178;-84
2022/06/24 05:34:41;;;;;;;3.10;0.70;;;20.80;99.90;;;;;;5037126;28;20193;-85
2022/06/24 05:37:06;;;;;;;0.60;0.50;;;20.80;99.90;;;;;;5038165;28;20945;-83
2022/06/24 05:39:32;;;;;;;0.50;0.50;;;20.80;99.90;;;;;;5037317;28;20186;-84
2022/06/24 05:41:58;;;;;;;0.73;0.23;;;20.90;99.90;;;;;;5038329;28;20655;-85
2022/06/24 05:44:23;;;;;;;0.27;0.27;;;21.00;99.90;;;;;;5038367;28;20216;-84
2022/06/24 05:46:49;;;;;;;0.67;0.50;;;21.00;99.90;;;;;;5039815;28;20667;-85
2022/06/24 05:49:14;;;;;;;0.57;0.57;;;21.00;99.90;;;;;;5039231;28;20174;-87
2022/06/24 05:51:40;;;;;;;0.27;0.27;;;21.10;99.90;;;;;;5039397;28;20186;-83
2022/06/24 05:56:50;;;;;;;0.40;0.40;;;20.90;99.90;;;;;;5042848;28;20176;-83
2022/06/24 05:59:15;;;;;;;0.40;0.40;;;20.90;99.90;;;;;;5034572;28;20193;-83
2022/06/24 06:01:41;;;;;;;0.30;0.30;;;21.00;99.90;;;;;;5037786;28;20255;-84
2022/06/24 06:04:07;;;;;;;0.30;0.30;;;20.90;99.90;;;;;;5035228;28;21115;-83
2022/06/24 06:06:34;;;;;;;0.30;0.30;;;21.00;99.90;;;;;;5036445;28;20208;-83
2022/06/24 06:09:00;;;;;;;0.30;0.30;;;21.00;99.90;;;;;;5034491;28;20232;-83
2022/06/24 06:11:26;;;;;;;0.20;0.20;;;21.10;99.90;;;;;;5035124;28;20261;-85
2022/06/24 06:13:54;;;;;;;0.43;0.30;;;21.20;99.90;;;;;;5037099;28;20193;-83
2022/06/24 06:16:22;;;;;;;0.20;0.20;;;21.20;99.90;;;;;;5035690;28;20231;-83
2022/06/24 06:18:49;;;;;;;0.20;0.20;;;21.30;99.90;;;;;;5035820;28;21276;-83
2022/06/24 06:21:16;;;;;;;0.70;0.30;;;21.30;99.90;;;;;;5036950;28;20733;-85
2022/06/24 06:23:41;;;;;;;0.40;0.40;;;21.30;99.90;;;;;;5036423;28;20192;-83
2022/06/24 06:26:08;;;;;;;0.23;0.23;;;21.40;99.90;;;;;;5037214;28;20182;-83
2022/06/24 06:28:34;;;;;;;0.40;0.40;;;21.50;99.90;;;;;;5034290;28;20202;-85
2022/06/24 06:31:01;;;;;;;0.40;0.30;;;21.70;99.90;;;;;;5037817;28;20196;-84
2022/06/24 06:33:26;;;;;;;0.20;0.20;;;21.90;99.90;;;;;;5032806;28;20186;-83
2022/06/24 06:36:00;;;;;;;2.00;0.40;;;22.10;99.90;;;;;;5039510;28;20231;-83
2022/06/24 06:38:26;;;;;;;0.20;0.20;;;22.40;99.90;;;;;;5034821;28;20272;-84
2022/06/24 06:40:51;;;;;;;0.57;0.47;;;22.60;99.90;;;;;;5032621;28;20182;-84
2022/06/24 06:43:17;;;;;;;0.20;0.20;;;23.00;99.90;;;;;;5032318;28;20198;-83
2022/06/24 06:45:42;;;;;;;0.30;0.30;;;23.30;99.90;;;;;;5032469;28;21222;-84
2022/06/24 06:48:08;;;;;;;0.53;0.53;;;23.20;99.90;;;;;;5032190;28;20213;-84
2022/06/24 06:50:34;;;;;;;0.50;0.50;;;23.20;99.90;;;;;;5033237;28;20322;-83
2022/06/24 06:52:59;;;;;;;0.40;0.40;;;23.20;99.90;;;;;;5035934;28;20201;-83
2022/06/24 06:55:25;;;;;;;0.87;0.60;;;23.00;99.90;;;;;;5031214;28;20882;-83
2022/06/24 06:57:51;;;;;;;0.40;0.40;;;22.80;99.90;;;;;;5036748;28;20675;-85
2022/06/24 07:00:17;;;;;;;2.30;0.50;;;22.70;99.90;;;;;;5038348;28;20186;-85
2022/06/24 07:02:43;;;;;;;0.93;0.63;;;22.50;99.90;;;;;;5045246;28;20204;-84
2022/06/24 07:05:09;;;;;;;0.67;0.60;;;22.60;99.90;;;;;;5043064;28;20296;-84
2022/06/24 07:07:34;;;;;;;0.53;0.53;;;22.40;99.90;;;;;;5043652;28;20194;-84
2022/06/24 07:10:00;;;;;;;0.50;0.40;;;22.40;99.90;;;;;;5042276;28;20661;-84
2022/06/24 07:12:27;;;;;;;0.30;0.30;;;22.60;99.90;;;;;;5043542;28;20206;-85
2022/06/24 07:14:53;;;;;;;0.30;0.30;;;22.70;99.90;;;;;;5041868;28;20197;-84
2022/06/24 07:17:19;;;;;;;0.43;0.43;;;23.00;99.90;;;;;;5040883;28;20209;-85
2022/06/24 07:19:45;;;;;;;0.53;0.53;;;23.20;99.90;;;;;;5039552;28;20186;-85
2022/06/24 07:22:12;;;;;;;0.50;0.50;;;23.50;99.90;;;;;;5038989;28;20215;-84
2022/06/24 07:24:37;;;;;;;0.73;0.73;;;23.70;99.90;;;;;;5038051;28;20245;-84
2022/06/24 07:27:05;;;;;;;0.30;0.30;;;23.90;99.90;;;;;;5036640;28;20210;-84
2022/06/24 07:29:34;;;;;;;0.30;0.30;;;23.70;99.90;;;;;;5039894;28;20183;-84
2022/06/24 07:32:00;;;;;;;0.50;0.30;;;23.50;99.90;;;;;;5039177;28;20189;-84
2022/06/24 07:34:26;;;;;;;0.80;0.60;;;23.20;99.90;;;;;;5038757;28;20522;-84
2022/06/24 07:36:53;;;;;;;0.30;0.30;;;23.00;99.90;;;;;;5039517;28;20597;-85
2022/06/24 07:39:18;;;;;;;0.40;0.40;;;23.10;99.90;;;;;;5038227;28;20190;-84
2022/06/24 07:41:44;;;;;;;0.60;0.60;;;22.90;99.90;;;;;;5038685;28;20243;-84
2022/06/24 07:44:09;;;;;;;1.13;0.50;;;22.80;99.90;;;;;;5039988;28;20449;-83
2022/06/24 07:46:35;;;;;;;0.30;0.30;;;22.70;99.90;;;;;;5036393;28;20221;-85
2022/06/24 07:49:01;;;;;;;0.47;0.40;;;22.60;99.90;;;;;;5038989;28;20636;-84
2022/06/24 07:51:26;;;;;;;0.77;0.70;;;22.70;99.90;;;;;;5041010;28;20179;-84
2022/06/24 07:53:52;;;;;;;0.83;0.40;;;22.50;99.90;;;;;;5038266;28;20190;-84
2022/06/24 07:59:02;;;;;;;0.37;0.37;;;22.40;99.90;;;;;;5037826;28;20231;-84
2022/06/24 08:01:27;;;;;;;0.43;0.43;;;22.40;99.90;;;;;;5038827;28;20579;-83
2022/06/24 08:03:53;;;;;;;2.30;1.03;;;22.40;99.90;;;;;;5036622;28;20233;-84
2022/06/24 08:06:18;;;;;;;0.40;0.40;;;22.30;99.90;;;;;;5036141;28;20181;-85
2022/06/24 08:08:44;;;;;;;0.37;0.37;;;22.40;99.90;;;;;;5036963;28;20674;-84
2022/06/24 08:11:09;;;;;;;0.53;0.33;;;22.40;99.90;;;;;;5036764;28;20181;-85
2022/06/24 08:13:35;;;;;;;0.40;0.40;;;22.40;99.90;;;;;;5038767;28;20177;-83
2022/06/24 08:16:01;;;;;;;0.30;0.30;;;22.20;99.90;;;;;;5041900;28;20342;-84
2022/06/24 08:18:27;;;;;;;0.77;0.40;;;22.20;99.90;;;;;;5041903;28;20217;-84
2022/06/24 08:20:53;;;;;;;0.40;0.40;;;22.30;99.90;;;;;;5043911;28;20209;-85
2022/06/24 08:23:19;;;;;;;0.50;0.50;;;22.30;99.90;;;;;;5045513;28;20177;-84
2022/06/24 08:25:44;;;;;;;0.23;0.23;;;22.30;99.90;;;;;;5044647;28;20206;-84
2022/06/24 08:28:10;;;;;;;0.37;0.37;;;22.20;99.90;;;;;;5043558;28;20198;-84
2022/06/24 08:30:36;;;;;;;0.73;0.43;;;22.20;99.90;;;;;;5046705;28;20198;-84
2022/06/24 08:33:02;;;;;;;0.20;0.20;;;22.20;99.90;;;;;;5054228;28;20182;-84
2022/06/24 08:35:28;;;;;;;0.37;0.37;;;22.10;99.90;;;;;;5045637;28;20252;-83
2022/06/24 08:37:54;;;;;;;0.37;0.37;;;22.10;99.90;;;;;;5047466;28;20218;-83
2022/06/24 08:40:21;;;;;;;2.90;0.70;;;22.00;99.90;;;;;;5048872;28;20586;-83
2022/06/24 08:42:52;;;;;;;2.17;0.97;;;22.00;99.90;;;;;;5048474;28;20712;-85
2022/06/24 08:45:18;;;;;;;0.70;0.60;;;21.80;99.90;;;;;;5048655;28;20220;-85
2022/06/24 08:47:47;;;;;;;0.50;0.43;;;21.80;99.90;;;;;;5048009;28;20580;-84
2022/06/24 08:50:13;;;;;;;0.60;0.50;;;21.80;99.90;;;;;;5048876;28;20189;-84
2022/06/24 08:52:45;;;;;;;0.50;0.37;;;21.80;99.90;;;;;;5048102;28;20189;-84
2022/06/24 08:55:18;;;;;;;0.47;0.47;;;21.80;99.90;;;;;;5049379;28;20279;-84
2022/06/24 08:57:45;;;;;;;0.27;0.27;;;21.90;99.90;;;;;;5046235;28;20212;-85
2022/06/24 09:00:12;;;;;;;0.40;0.40;;;22.20;99.90;;;;;;5048161;28;20177;-85
2022/06/24 09:02:38;;;;;;;0.20;0.20;;;22.70;99.90;;;;;;5048314;28;20186;-84
2022/06/24 09:05:11;;;;;;;0.73;0.73;;;23.00;99.90;;;;;;5048950;28;20759;-84
2022/06/24 09:07:37;;;;;;;0.70;0.70;;;23.10;99.90;;;;;;5045086;28;20268;-84
2022/06/24 09:10:12;;;;;;;0.43;0.43;;;23.20;99.90;;;;;;5045372;28;20292;-84
2022/06/24 09:12:39;;;;;;;0.87;0.67;;;23.20;99.90;;;;;;5044263;28;20770;-85
2022/06/24 09:15:07;;;;;;;0.63;0.30;;;23.20;99.90;;;;;;5045773;28;20186;-84
2022/06/24 09:17:34;;;;;;;0.40;0.40;;;23.30;99.90;;;;;;5046120;28;20694;-84
2022/06/24 09:20:13;;;;;;;0.40;0.40;;;23.30;99.90;;;;;;5043670;28;20254;-85
2022/06/24 09:22:39;;;;;;;1.23;0.53;;;23.30;99.90;;;;;;5052251;28;20285;-85
2022/06/24 09:25:06;;;;;;;0.30;0.30;;;23.50;99.90;;;;;;5048687;28;20584;-84
2022/06/24 09:27:32;;;;;;;0.43;0.43;;;23.70;99.90;;;;;;5044187;28;20220;-85
2022/06/24 09:29:58;;;;;;;0.50;0.50;;;23.70;99.90;;;;;;5043016;28;20276;-85
2022/06/24 09:32:23;;;;;;;0.40;0.40;;;23.70;99.90;;;;;;5042911;28;20182;-84
2022/06/24 09:35:07;;;;;;;0.83;0.63;;;23.90;99.90;;;;;;5043737;28;20182;-85
2022/06/24 09:37:34;;;;;;;0.67;0.67;;;24.10;99.90;;;;;;5049066;28;20256;-85
2022/06/24 09:40:15;;;;;;;1.90;0.60;;;24.30;99.90;;;;;;5048624;28;20543;-83
2022/06/24 09:42:40;;;;;;;0.93;0.60;;;24.60;99.90;;;;;;5043558;28;20655;-85
2022/06/24 09:45:06;;;;;;;1.23;0.70;;;24.70;99.90;;;;;;5042277;28;20217;-85
2022/06/24 09:47:38;;;;;;;0.43;0.43;;;24.80;99.90;;;;;;5049640;28;20739;-84
2022/06/24 09:50:05;;;;;;;0.30;0.30;;;25.10;99.90;;;;;;5041827;28;20189;-84
2022/06/24 09:52:31;;;;;;;0.30;0.30;;;25.30;99.90;;;;;;5044124;28;20634;-84
2022/06/24 09:54:56;;;;;;;0.33;0.33;;;25.60;99.90;;;;;;5041016;28;20363;-85
2022/06/24 09:57:23;;;;;;;0.30;0.30;;;26.00;99.90;;;;;;5043388;28;20260;-84
2022/06/24 10:02:34;;;;;;;0.60;0.60;;;26.20;99.90;;;;;;5043063;28;20244;-84
2022/06/24 10:05:02;;;;;;;0.70;0.40;;;26.30;99.90;;;;;;5044857;28;20216;-85
2022/06/24 10:07:33;;;;;;;0.27;0.27;;;26.20;99.90;;;;;;5038479;28;20297;-84
2022/06/24 10:10:03;;;;;;;0.93;0.93;;;26.20;99.90;;;;;;5039093;28;20190;-85
2022/06/24 10:12:31;;;;;;;0.40;0.40;;;26.40;99.90;;;;;;5062242;28;20562;-84
2022/06/24 10:14:58;;;;;;;0.37;0.37;;;26.80;99.90;;;;;;5038669;28;20279;-84
2022/06/24 10:17:25;;;;;;;0.43;0.40;;;26.80;99.90;;;;;;5061485;28;20206;-84
2022/06/24 10:19:51;;;;;;;0.50;0.50;;;27.10;99.90;;;;;;5037735;28;20235;-85
2022/06/24 10:22:36;;;;;;;0.67;0.60;;;27.20;99.90;;;;;;5042583;28;20193;-85
2022/06/24 10:25:02;;;;;;;0.30;0.30;;;27.10;99.90;;;;;;5038293;28;20698;-84
2022/06/24 10:28:03;;;;;;;0.63;0.60;;;26.90;99.90;;;;;;5036977;28;20206;-85
2022/06/24 10:30:57;;;;;;;0.43;0.40;;;27.20;99.90;;;;;;5042032;28;20177;-84
2022/06/24 10:33:26;;;;;;;1.17;0.90;;;27.50;99.90;;;;;;5034948;28;20269;-84
2022/06/24 10:35:58;;;;;;;0.40;0.40;;;27.10;99.90;;;;;;5034658;28;20186;-85
2022/06/24 10:38:26;;;;;;;0.63;0.50;;;26.70;99.90;;;;;;5033413;28;20200;-84
2022/06/24 10:40:52;;;;;;;0.53;0.53;;;26.40;99.90;;;;;;5034389;28;20178;-84
2022/06/24 10:43:34;;;;;;;0.40;0.40;;;26.10;99.90;;;;;;5035050;28;20284;-85
2022/06/24 10:46:13;;;;;;;0.60;0.60;;;26.10;99.90;;;;;;5033870;28;20588;-84
2022/06/24 10:48:59;;;;;;;0.80;0.80;;;26.20;99.90;;;;;;5034799;28;20820;-85
2022/06/24 10:51:28;;;;;;;0.57;0.57;;;26.50;99.90;;;;;;5035168;28;20273;-84
2022/06/24 10:54:03;;;;;;;0.83;0.50;;;26.30;99.90;;;;;;5033332;28;20198;-84
2022/06/24 10:56:41;;;;;;;0.60;0.60;;;26.20;99.90;;;;;;5035933;28;20183;-85
2022/06/24 10:59:07;;;;;;;0.47;0.47;;;26.50;99.90;;;;;;5035792;28;20339;-84
2022/06/24 11:01:33;;;;;;;0.60;0.60;;;27.00;99.90;;;;;;5035544;28;20173;-85
2022/06/24 11:04:03;;;;;;;0.33;0.33;;;27.30;99.90;;;;;;5036187;28;20206;-85
2022/06/24 11:06:28;;;;;;;0.80;0.80;;;27.40;99.90;;;;;;5036602;28;20184;-85
2022/06/24 11:08:54;;;;;;;0.60;0.60;;;27.40;99.90;;;;;;5036727;28;20205;-84
2022/06/24 11:11:29;;;;;;;0.40;0.40;;;27.50;99.90;;;;;;5037455;28;20182;-85
2022/06/24 11:13:55;;;;;;;0.37;0.37;;;27.40;99.90;;;;;;5038573;28;20205;-84
2022/06/24 11:16:21;;;;;;;1.00;0.43;;;27.40;99.90;;;;;;5036251;28;20240;-84
2022/06/24 11:18:50;;;;;;;0.23;0.23;;;27.40;99.90;;;;;;5041099;28;20209;-84
2022/06/24 11:21:19;;;;;;;0.33;0.33;;;27.40;99.90;;;;;;5038089;28;20512;-84
2022/06/24 11:23:46;;;;;;;0.57;0.50;;;27.60;99.90;;;;;;5036155;28;20188;-85
2022/06/24 11:26:16;;;;;;;0.50;0.50;;;27.80;99.90;;;;;;5035608;28;20780;-84
2022/06/24 11:28:48;;;;;;;0.60;0.60;;;27.80;99.90;;;;;;5033598;28;20211;-85
2022/06/24 11:31:25;;;;;;;0.40;0.40;;;28.00;99.90;;;;;;5037191;28;20340;-85
2022/06/24 11:34:03;;;;;;;1.00;0.70;;;28.10;99.90;;;;;;5036249;28;20174;-85
2022/06/24 11:36:31;;;;;;;0.33;0.33;;;28.20;99.90;;;;;;5039359;28;20555;-85
2022/06/24 11:38:58;;;;;;;0.97;0.70;;;27.80;99.90;;;;;;5036047;28;20202;-85
2022/06/24 11:41:37;;;;;;;0.33;0.33;;;27.80;99.90;;;;;;5034087;28;20182;-85
2022/06/24 11:44:03;;;;;;;0.50;0.50;;;27.60;99.90;;;;;;5033750;28;20818;-85
2022/06/24 11:46:29;;;;;;;0.40;0.40;;;27.80;99.90;;;;;;5036855;28;20174;-84
2022/06/24 11:49:11;;;;;;;0.30;0.30;;;27.60;99.90;;;;;;5040379;28;20617;-84
2022/06/24 11:51:37;;;;;;;0.20;0.20;;;27.50;99.90;;;;;;5039829;28;20179;-84
2022/06/24 11:54:05;;;;;;;3.03;0.73;;;27.80;99.90;;;;;;5038922;28;20190;-85
2022/06/24 11:56:32;;;;;;;0.43;0.43;;;27.20;99.90;;;;;;5039600;28;20239;-85
2022/06/24 11:59:04;;;;;;;0.67;0.63;;;27.50;99.90;;;;;;5060174;28;20210;-84
2022/06/24 12:01:30;;;;;;;1.43;0.87;;;27.50;99.90;;;;;;5039621;28;20221;-84
2022/06/24 12:03:59;;;;;;;0.60;0.60;;;27.50;99.90;;;;;;5059863;28;20194;-85
2022/06/24 12:06:26;;;;;;;0.57;0.57;;;27.60;99.90;;;;;;5044072;28;20294;-85
2022/06/24 12:08:53;;;;;;;0.50;0.50;;;27.70;99.90;;;;;;5044792;28;20290;-84
2022/06/24 12:11:20;;;;;;;1.70;0.87;;;28.00;99.90;;;;;;5040159;28;20181;-85
2022/06/24 12:13:56;;;;;;;0.37;0.37;;;28.10;99.90;;;;;;5037952;28;20181;-85
2022/06/24 12:16:22;;;;;;;0.30;0.30;;;28.20;99.90;;;;;;5038162;28;20166;-85
2022/06/24 12:18:48;;;;;;;0.53;0.53;;;28.40;99.90;;;;;;5043759;28;20206;-84
2022/06/24 12:21:14;;;;;;;0.60;0.60;;;28.20;99.90;;;;;;5040753;28;20717;-85
2022/06/24 12:23:44;;;;;;;0.60;0.60;;;28.50;99.90;;;;;;5045979;28;20205;-85
2022/06/24 12:26:18;;;;;;;0.43;0.43;;;28.40;99.90;;;;;;5038700;28;20233;-85
2022/06/24 12:28:45;;;;;;;3.35;1.40;;;28.50;99.90;;;;;;5039029;28;20202;-85
2022/06/24 12:31:12;;;;;;;0.38;0.30;;;28.80;99.90;;;;;;5037390;28;20200;-85
2022/06/24 12:33:44;;;;;;;0.40;0.30;;;29.00;99.90;;;;;;5039168;28;20196;-85
2022/06/24 12:36:15;;;;;;;0.40;0.40;;;29.30;99.90;;;;;;5035949;28;20183;-85
2022/06/24 12:38:58;;;;;;;0.15;0.15;;;29.50;99.90;;;;;;5037866;28;20683;-85
2022/06/24 12:41:24;;;;;;;0.70;0.70;;;29.60;99.90;;;;;;5036774;28;20182;-85
2022/06/24 12:44:01;;;;;;;0.22;0.22;;;29.60;99.90;;;;;;5039461;28;20194;-85
2022/06/24 12:46:33;;;;;;;0.45;0.45;;;29.80;99.90;;;;;;5036554;28;20724;-84
2022/06/24 12:51:47;;;;;;;0.30;0.30;;;30.00;99.90;;;;;;5038535;28;20204;-85
2022/06/24 12:54:15;;;;;;;0.88;0.43;;;29.80;99.90;;;;;;5035566;28;20180;-85
2022/06/24 12:56:41;;;;;;;0.85;0.85;;;29.60;99.90;;;;;;5034460;28;20191;-85
2022/06/24 12:59:07;;;;;;;0.47;0.47;;;29.30;99.90;;;;;;5037014;28;20952;-84
2022/06/24 13:01:46;;;;;;;0.85;0.70;;;29.20;99.90;;;;;;5035033;28;20186;-85
2022/06/24 13:04:13;;;;;;;0.63;0.63;;;29.20;99.90;;;;;;5034179;28;20193;-85
2022/06/24 13:06:39;;;;;;;2.15;0.60;;;29.60;99.90;;;;;;5038494;28;20205;-84